createdAt,value
2018-06-02T00:01:04.243Z,16.40
2018-06-02T00:03:32.744Z,16.30
2018-06-02T00:06:00.450Z,16.30
2018-06-02T00:08:28.019Z,16.30
2018-06-02T00:10:55.718Z,16.30
2018-06-02T00:13:23.371Z,16.20
2018-06-02T00:15:51.150Z,16.20
2018-06-02T00:18:19.004Z,16.20
2018-06-02T00:20:46.758Z,16.20
2018-06-02T00:23:14.533Z,16.20
2018-06-02T00:25:42.235Z,16.20
2018-06-02T00:28:09.964Z,16.20
2018-06-02T00:30:37.567Z,16.20
2018-06-02T00:33:05.745Z,16.10
2018-06-02T00:35:33.535Z,16.10
2018-06-02T00:38:04.860Z,16.10
2018-06-02T00:40:32.611Z,16.10
2018-06-02T00:43:00.283Z,16.10
2018-06-02T00:45:27.967Z,16.10
2018-06-02T00:47:55.740Z,16.10
2018-06-02T00:50:23.512Z,16.10
2018-06-02T00:52:51.244Z,16.10
2018-06-02T00:55:19.712Z,16.10
2018-06-02T00:57:47.571Z,16.10
2018-06-02T01:00:15.167Z,16.10
2018-06-02T01:02:42.774Z,16.10
2018-06-02T01:05:10.409Z,16.10
2018-06-02T01:07:38.016Z,16.10
2018-06-02T01:10:05.607Z,16.10
2018-06-02T01:12:33.214Z,16.20
2018-06-02T01:15:00.820Z,16.10
2018-06-02T01:17:28.390Z,16.10
2018-06-02T01:19:56.058Z,16.10
2018-06-02T01:22:23.659Z,16.10
2018-06-02T01:24:51.251Z,16.00
2018-06-02T01:27:19.584Z,16.00
2018-06-02T01:29:47.211Z,15.90
2018-06-02T01:32:14.825Z,15.90
2018-06-02T01:34:42.390Z,15.90
2018-06-02T01:37:09.988Z,15.90
2018-06-02T01:39:37.600Z,15.90
2018-06-02T01:42:05.200Z,15.90
2018-06-02T01:44:32.749Z,15.90
2018-06-02T01:47:00.343Z,15.90
2018-06-02T01:49:27.972Z,15.90
2018-06-02T01:51:55.557Z,15.80
2018-06-02T01:54:23.157Z,15.80
2018-06-02T01:56:50.712Z,15.80
2018-06-02T01:59:18.306Z,15.80
2018-06-02T02:01:45.888Z,15.80
2018-06-02T02:04:13.528Z,15.80
2018-06-02T02:06:41.120Z,15.80
2018-06-02T02:09:08.692Z,15.80
2018-06-02T02:11:38.197Z,15.80
2018-06-02T02:14:05.779Z,15.80
2018-06-02T02:16:34.199Z,15.80
2018-06-02T02:19:01.808Z,15.80
2018-06-02T02:21:29.384Z,15.80
2018-06-02T02:23:57.752Z,15.80
2018-06-02T02:26:26.104Z,15.90
2018-06-02T02:28:53.680Z,15.80
2018-06-02T02:31:21.279Z,15.80
2018-06-02T02:33:48.869Z,15.90
2018-06-02T02:36:16.457Z,15.90
2018-06-02T02:38:44.099Z,15.90
2018-06-02T02:41:11.731Z,15.90
2018-06-02T02:43:39.367Z,15.90
2018-06-02T02:46:06.955Z,15.90
2018-06-02T02:48:34.542Z,15.90
2018-06-02T02:51:02.129Z,15.80
2018-06-02T02:53:29.760Z,15.80
2018-06-02T02:55:57.335Z,15.80
2018-06-02T02:58:25.692Z,15.80
2018-06-02T03:00:54.290Z,15.80
2018-06-02T03:03:21.898Z,15.80
2018-06-02T03:05:49.453Z,15.80
2018-06-02T03:08:17.144Z,15.80
2018-06-02T03:10:44.768Z,15.80
2018-06-02T03:13:12.403Z,15.80
2018-06-02T03:15:40.783Z,15.80
2018-06-02T03:18:09.094Z,15.80
2018-06-02T03:20:36.701Z,15.70
2018-06-02T03:23:04.267Z,15.80
2018-06-02T03:25:32.622Z,15.80
2018-06-02T03:28:00.168Z,15.70
2018-06-02T03:30:27.791Z,15.80
2018-06-02T03:32:55.380Z,15.80
2018-06-02T03:35:23.016Z,15.70
2018-06-02T03:37:50.572Z,15.80
2018-06-02T03:40:18.164Z,15.80
2018-06-02T03:42:45.760Z,15.80
2018-06-02T03:45:14.153Z,15.80
2018-06-02T03:47:41.740Z,15.80
2018-06-02T03:50:09.349Z,15.80
2018-06-02T03:52:37.018Z,15.80
2018-06-02T03:55:05.403Z,15.80
2018-06-02T03:57:33.005Z,15.80
2018-06-02T04:00:04.292Z,15.80
2018-06-02T04:02:31.914Z,15.80
2018-06-02T04:04:59.538Z,15.80
2018-06-02T04:07:27.162Z,15.80
2018-06-02T04:09:58.113Z,15.80
2018-06-02T04:12:26.467Z,15.90
2018-06-02T04:14:54.050Z,15.90
2018-06-02T04:17:22.395Z,16.00
2018-06-02T04:19:49.952Z,15.90
2018-06-02T04:22:17.560Z,15.90
2018-06-02T04:24:45.131Z,16.00
2018-06-02T04:27:12.736Z,16.00
2018-06-02T04:29:40.295Z,16.00
2018-06-02T04:32:07.903Z,16.10
2018-06-02T04:34:35.471Z,16.10
2018-06-02T04:37:03.150Z,16.10
2018-06-02T04:39:30.710Z,16.10
2018-06-02T04:41:58.291Z,16.10
2018-06-02T04:44:25.898Z,16.10
2018-06-02T04:46:53.479Z,16.10
2018-06-02T04:49:21.065Z,16.20
2018-06-02T04:51:48.675Z,16.20
2018-06-02T04:54:16.270Z,16.30
2018-06-02T04:56:43.874Z,16.30
2018-06-02T04:59:11.465Z,16.30
2018-06-02T05:01:39.127Z,16.30
2018-06-02T05:04:06.788Z,16.30
2018-06-02T05:06:34.370Z,16.30
2018-06-02T05:09:01.937Z,16.30
2018-06-02T05:11:29.496Z,16.40
2018-06-02T05:13:57.094Z,16.40
2018-06-02T05:16:24.716Z,16.30
2018-06-02T05:18:52.301Z,16.30
2018-06-02T05:21:20.670Z,16.40
2018-06-02T05:23:49.039Z,16.40
2018-06-02T05:26:16.603Z,16.40
2018-06-02T05:28:44.935Z,16.50
2018-06-02T05:31:12.571Z,16.50
2018-06-02T05:33:40.145Z,16.50
2018-06-02T05:36:07.726Z,16.40
2018-06-02T05:38:35.290Z,16.40
2018-06-02T05:41:02.877Z,16.40
2018-06-02T05:43:31.198Z,16.40
2018-06-02T05:45:58.819Z,16.40
2018-06-02T05:48:26.326Z,16.40
2018-06-02T05:50:53.953Z,16.40
2018-06-02T05:53:21.562Z,16.40
2018-06-02T05:55:49.167Z,16.40
2018-06-02T05:58:16.732Z,16.50
2018-06-02T06:00:44.292Z,16.50
2018-06-02T06:03:11.913Z,16.50
2018-06-02T06:05:39.528Z,16.50
2018-06-02T06:08:07.165Z,16.60
2018-06-02T06:10:34.752Z,16.60
2018-06-02T06:13:02.376Z,16.60
2018-06-02T06:15:30.002Z,16.60
2018-06-02T06:17:58.443Z,16.60
2018-06-02T06:20:26.045Z,16.60
2018-06-02T06:22:53.638Z,16.50
2018-06-02T06:25:21.234Z,16.50
2018-06-02T06:27:48.881Z,16.60
2018-06-02T06:30:16.504Z,16.60
2018-06-02T06:32:47.339Z,16.50
2018-06-02T06:35:14.930Z,16.50
2018-06-02T06:37:42.472Z,16.50
2018-06-02T06:40:10.089Z,16.50
2018-06-02T06:42:37.677Z,16.50
2018-06-02T06:45:05.308Z,16.50
2018-06-02T06:47:32.901Z,16.50
2018-06-02T06:50:00.471Z,16.50
2018-06-02T06:52:28.097Z,16.40
2018-06-02T06:54:56.448Z,16.40
2018-06-02T06:57:24.067Z,16.40
2018-06-02T06:59:51.688Z,16.50
2018-06-02T07:02:19.255Z,16.40
2018-06-02T07:04:47.616Z,16.40
2018-06-02T07:07:15.261Z,16.40
2018-06-02T07:09:42.898Z,16.40
2018-06-02T07:12:10.522Z,16.40
2018-06-02T07:14:38.881Z,16.40
2018-06-02T07:17:06.519Z,16.40
2018-06-02T07:19:34.110Z,16.40
2018-06-02T07:22:02.546Z,16.50
2018-06-02T07:24:30.179Z,16.40
2018-06-02T07:26:57.785Z,16.50
2018-06-02T07:29:25.397Z,16.50
2018-06-02T07:31:53.055Z,16.50
2018-06-02T07:34:20.710Z,16.60
2018-06-02T07:36:48.307Z,16.60
2018-06-02T07:39:16.010Z,16.60
2018-06-02T07:41:44.366Z,16.60
2018-06-02T07:44:11.964Z,16.60
2018-06-02T07:46:39.557Z,16.60
2018-06-02T07:49:07.161Z,16.70
2018-06-02T07:51:35.506Z,16.80
2018-06-02T07:54:03.089Z,16.80
2018-06-02T07:56:31.465Z,16.90
2018-06-02T07:58:59.143Z,16.90
2018-06-02T08:01:26.786Z,16.90
2018-06-02T08:03:55.156Z,17.00
2018-06-02T08:06:22.783Z,17.00
2018-06-02T08:08:50.360Z,17.20
2018-06-02T08:11:18.000Z,17.20
2018-06-02T08:13:45.584Z,17.20
2018-06-02T08:16:13.277Z,17.20
2018-06-02T08:18:41.633Z,17.00
2018-06-02T08:21:09.968Z,17.00
2018-06-02T08:23:37.584Z,17.00
2018-06-02T08:26:06.001Z,17.00
2018-06-02T08:28:33.612Z,17.00
2018-06-02T08:31:01.352Z,16.90
2018-06-02T08:33:29.047Z,17.00
2018-06-02T08:35:56.599Z,17.00
2018-06-02T08:38:24.215Z,17.00
2018-06-02T08:40:51.781Z,17.20
2018-06-02T08:43:19.419Z,17.20
2018-06-02T08:45:47.024Z,17.30
2018-06-02T08:48:14.656Z,17.40
2018-06-02T08:50:42.305Z,17.50
2018-06-02T08:53:09.947Z,17.60
2018-06-02T08:55:38.597Z,17.80
2018-06-02T08:58:07.042Z,17.80
2018-06-02T09:00:34.644Z,17.90
2018-06-02T09:03:03.045Z,17.90
2018-06-02T09:05:30.619Z,17.90
2018-06-02T09:07:58.289Z,17.90
2018-06-02T09:10:25.887Z,18.00
2018-06-02T09:12:54.304Z,17.80
2018-06-02T09:15:22.861Z,17.80
2018-06-02T09:17:51.253Z,17.90
2018-06-02T09:20:18.833Z,17.90
2018-06-02T09:22:46.464Z,18.20
2018-06-02T09:25:14.027Z,18.30
2018-06-02T09:27:41.684Z,18.70
2018-06-02T09:30:09.239Z,19.10
2018-06-02T09:32:37.734Z,19.50
2018-06-02T09:35:05.387Z,19.60
2018-06-02T09:37:32.916Z,19.70
2018-06-02T09:40:01.277Z,20.00
2018-06-02T09:42:29.007Z,20.00
2018-06-02T09:44:56.570Z,20.50
2018-06-02T09:47:24.205Z,20.70
2018-06-02T09:49:51.855Z,20.70
2018-06-02T09:52:19.436Z,20.40
2018-06-02T09:54:47.028Z,20.40
2018-06-02T09:57:14.635Z,20.40
2018-06-02T09:59:42.218Z,20.20
2018-06-02T10:02:09.867Z,20.00
2018-06-02T10:04:37.475Z,20.00
2018-06-02T10:07:05.076Z,19.80
2018-06-02T10:09:32.692Z,19.60
2018-06-02T10:12:00.308Z,19.60
2018-06-02T10:14:27.872Z,19.80
2018-06-02T10:16:55.455Z,20.10
2018-06-02T10:19:23.047Z,20.50
2018-06-02T10:21:51.392Z,21.30
2018-06-02T10:24:18.962Z,21.30
2018-06-02T10:26:46.613Z,21.70
2018-06-02T10:29:14.241Z,21.50
2018-06-02T10:31:41.814Z,21.50
2018-06-02T10:34:09.419Z,21.80
2018-06-02T10:36:37.765Z,22.50
2018-06-02T10:39:05.378Z,22.50
2018-06-02T10:41:32.939Z,22.20
2018-06-02T10:44:00.594Z,21.90
2018-06-02T10:46:28.214Z,21.60
2018-06-02T10:48:55.864Z,21.80
2018-06-02T10:51:23.439Z,21.80
2018-06-02T10:53:51.069Z,21.60
2018-06-02T10:56:18.896Z,21.80
2018-06-02T10:58:46.527Z,21.90
2018-06-02T11:01:14.116Z,21.90
2018-06-02T11:03:41.720Z,21.90
2018-06-02T11:06:09.292Z,22.00
2018-06-02T11:08:36.962Z,21.70
2018-06-02T11:11:05.294Z,22.00
2018-06-02T11:13:32.895Z,21.90
2018-06-02T11:16:00.469Z,22.10
2018-06-02T11:18:28.947Z,22.70
2018-06-02T11:20:57.332Z,23.10
2018-06-02T11:23:24.973Z,23.20
2018-06-02T11:25:52.616Z,23.80
2018-06-02T11:28:20.362Z,24.30
2018-06-02T11:30:47.996Z,24.30
2018-06-02T11:33:15.664Z,24.20
2018-06-02T11:35:43.255Z,24.20
2018-06-02T11:38:10.872Z,24.10
2018-06-02T11:40:38.435Z,23.60
2018-06-02T11:43:06.054Z,23.00
2018-06-02T11:45:33.630Z,23.10
2018-06-02T11:48:01.215Z,23.40
2018-06-02T11:50:28.816Z,23.40
2018-06-02T11:52:56.495Z,23.70
2018-06-02T11:55:24.892Z,23.20
2018-06-02T11:57:52.542Z,23.20
2018-06-02T12:00:20.929Z,23.20
2018-06-02T12:02:48.545Z,23.20
2018-06-02T12:05:16.144Z,23.40
2018-06-02T12:07:43.831Z,23.40
2018-06-02T12:10:11.428Z,22.60
2018-06-02T12:12:39.034Z,22.60
2018-06-02T12:15:06.659Z,22.80
2018-06-02T12:17:34.265Z,22.80
2018-06-02T12:20:01.858Z,22.90
2018-06-02T12:22:29.571Z,22.60
2018-06-02T12:24:57.223Z,22.20
2018-06-02T12:27:24.795Z,21.90
2018-06-02T12:29:52.436Z,21.80
2018-06-02T12:32:20.778Z,22.30
2018-06-02T12:34:48.380Z,22.20
2018-06-02T12:37:16.723Z,22.80
2018-06-02T12:39:44.347Z,22.70
2018-06-02T12:42:11.919Z,22.80
2018-06-02T12:44:39.511Z,23.10
2018-06-02T12:47:07.876Z,23.50
2018-06-02T12:49:35.515Z,23.50
2018-06-02T12:52:03.110Z,23.40
2018-06-02T12:54:31.495Z,22.90
2018-06-02T12:56:59.820Z,22.70
2018-06-02T12:59:28.302Z,22.40
2018-06-02T13:01:55.884Z,22.30
2018-06-02T13:04:23.547Z,22.10
2018-06-02T13:06:51.185Z,22.20
2018-06-02T13:09:18.819Z,22.90
2018-06-02T13:11:46.419Z,23.20
2018-06-02T13:14:14.009Z,23.80
2018-06-02T13:16:41.679Z,24.80
2018-06-02T13:19:09.322Z,25.40
2018-06-02T13:21:37.678Z,25.40
2018-06-02T13:24:05.365Z,25.40
2018-06-02T13:26:33.742Z,23.90
2018-06-02T13:29:02.120Z,22.70
2018-06-02T13:31:30.563Z,21.70
2018-06-02T13:33:58.239Z,21.60
2018-06-02T13:36:25.827Z,21.00
2018-06-02T13:38:54.220Z,20.90
2018-06-02T13:41:21.796Z,20.90
2018-06-02T13:43:49.403Z,20.90
2018-06-02T13:46:17.764Z,21.50
2018-06-02T13:48:45.415Z,21.50
2018-06-02T13:51:13.005Z,22.40
2018-06-02T13:53:41.406Z,23.50
2018-06-02T13:56:08.995Z,23.50
2018-06-02T13:58:36.615Z,23.00
2018-06-02T14:01:04.183Z,22.30
2018-06-02T14:03:31.771Z,22.10
2018-06-02T14:05:59.440Z,22.20
2018-06-02T14:08:27.052Z,22.60
2018-06-02T14:10:54.671Z,23.10
2018-06-02T14:13:22.331Z,23.20
2018-06-02T14:15:49.919Z,22.40
2018-06-02T14:18:19.131Z,22.50
2018-06-02T14:20:46.716Z,22.40
2018-06-02T14:23:14.356Z,23.30
2018-06-02T14:25:42.077Z,24.90
2018-06-02T14:28:09.612Z,27.30
2018-06-02T14:30:37.222Z,28.60
2018-06-02T14:33:05.588Z,31.00
2018-06-02T14:35:33.192Z,30.90
2018-06-02T14:38:00.823Z,32.20
2018-06-02T14:40:28.383Z,31.30
2018-06-02T14:42:56.068Z,29.60
2018-06-02T14:45:23.660Z,28.20
2018-06-02T14:47:51.256Z,26.30
2018-06-02T14:50:18.872Z,25.40
2018-06-02T14:52:46.442Z,25.10
2018-06-02T14:55:14.174Z,24.80
2018-06-02T14:57:41.732Z,24.30
2018-06-02T15:00:09.346Z,24.20
2018-06-02T15:02:37.708Z,24.00
2018-06-02T15:05:05.482Z,23.90
2018-06-02T15:07:33.888Z,28.60
2018-06-02T15:10:01.572Z,28.50
2018-06-02T15:12:29.182Z,30.40
2018-06-02T15:14:56.763Z,30.70
2018-06-02T15:17:24.394Z,28.80
2018-06-02T15:19:52.024Z,27.00
2018-06-02T15:22:19.651Z,25.70
2018-06-02T15:24:47.287Z,25.90
2018-06-02T15:27:15.605Z,30.70
2018-06-02T15:29:43.231Z,30.70
2018-06-02T15:32:10.812Z,29.30
2018-06-02T15:34:38.462Z,27.40
2018-06-02T15:37:06.048Z,25.90
2018-06-02T15:39:33.621Z,24.10
2018-06-02T15:42:01.214Z,23.30
2018-06-02T15:44:28.848Z,22.80
2018-06-02T15:46:56.436Z,22.60
2018-06-02T15:49:24.888Z,22.30
2018-06-02T15:51:52.495Z,22.40
2018-06-02T15:54:20.080Z,22.70
2018-06-02T15:56:47.699Z,24.60
2018-06-02T15:59:15.660Z,27.10
2018-06-02T16:01:44.127Z,28.80
2018-06-02T16:04:12.510Z,29.40
2018-06-02T16:06:40.875Z,28.50
2018-06-02T16:09:08.498Z,28.50
2018-06-02T16:11:36.083Z,28.60
2018-06-02T16:14:03.681Z,28.70
2018-06-02T16:16:31.278Z,29.00
2018-06-02T16:18:59.004Z,29.10
2018-06-02T16:21:26.582Z,29.80
2018-06-02T16:23:54.201Z,29.20
2018-06-02T16:26:22.551Z,29.90
2018-06-02T16:28:50.177Z,29.80
2018-06-02T16:31:17.756Z,31.20
2018-06-02T16:33:45.418Z,32.30
2018-06-02T16:36:13.075Z,32.50
2018-06-02T16:38:40.755Z,32.10
2018-06-02T16:41:08.447Z,31.80
2018-06-02T16:43:36.817Z,31.30
2018-06-02T16:46:04.424Z,31.30
2018-06-02T16:48:32.007Z,31.70
2018-06-02T16:50:59.618Z,31.00
2018-06-02T16:53:27.211Z,29.70
2018-06-02T16:55:54.938Z,28.60
2018-06-02T16:58:24.375Z,27.60
2018-06-02T17:00:51.938Z,27.70
2018-06-02T17:03:19.596Z,28.40
2018-06-02T17:05:47.247Z,29.40
2018-06-02T17:08:14.844Z,29.80
2018-06-02T17:10:43.303Z,29.30
2018-06-02T17:13:10.896Z,29.20
2018-06-02T17:15:39.288Z,29.50
2018-06-02T17:18:06.938Z,29.50
2018-06-02T17:20:34.587Z,28.90
2018-06-02T17:23:02.187Z,28.70
2018-06-02T17:25:29.808Z,28.20
2018-06-02T17:27:58.220Z,27.20
2018-06-02T17:30:25.827Z,27.20
2018-06-02T17:32:53.439Z,28.20
2018-06-02T17:35:21.056Z,28.30
2018-06-02T17:37:49.481Z,27.70
2018-06-02T17:40:17.099Z,27.70
2018-06-02T17:42:45.477Z,26.70
2018-06-02T17:45:13.916Z,27.30
2018-06-02T17:47:42.496Z,27.30
2018-06-02T17:50:10.106Z,27.60
2018-06-02T17:52:37.748Z,27.00
2018-06-02T17:55:05.405Z,27.00
2018-06-02T17:57:33.123Z,27.30
2018-06-02T18:00:00.698Z,26.50
2018-06-02T18:02:28.423Z,25.50
2018-06-02T18:04:56.016Z,24.70
2018-06-02T18:07:23.599Z,24.70
2018-06-02T18:09:51.218Z,24.60
2018-06-02T18:12:18.842Z,24.40
2018-06-02T18:14:47.202Z,24.10
2018-06-02T18:17:14.839Z,24.00
2018-06-02T18:19:42.457Z,23.50
2018-06-02T18:22:10.032Z,23.10
2018-06-02T18:24:37.649Z,22.90
2018-06-02T18:27:06.029Z,22.30
2018-06-02T18:29:34.435Z,22.00
2018-06-02T18:32:02.038Z,22.00
2018-06-02T18:34:29.693Z,21.80
2018-06-02T18:36:57.302Z,21.70
2018-06-02T18:39:24.917Z,21.60
2018-06-02T18:41:52.544Z,21.40
2018-06-02T18:44:20.234Z,21.20
2018-06-02T18:46:47.900Z,21.00
2018-06-02T18:49:15.540Z,20.90
2018-06-02T18:51:43.136Z,20.70
2018-06-02T18:54:11.604Z,20.30
2018-06-02T18:56:39.264Z,20.30
2018-06-02T18:59:06.869Z,20.20
2018-06-02T19:01:34.544Z,20.00
2018-06-02T19:04:02.113Z,19.80
2018-06-02T19:06:29.709Z,19.60
2018-06-02T19:08:58.048Z,19.30
2018-06-02T19:11:25.648Z,19.30
2018-06-02T19:13:54.031Z,18.90
2018-06-02T19:16:22.354Z,18.80
2018-06-02T19:18:50.013Z,18.70
2018-06-02T19:21:17.591Z,18.50
2018-06-02T19:23:45.184Z,18.30
2018-06-02T19:26:13.587Z,17.80
2018-06-02T19:28:41.245Z,17.70
2018-06-02T19:31:08.840Z,17.40
2018-06-02T19:33:36.469Z,17.00
2018-06-02T19:36:04.127Z,16.70
2018-06-02T19:38:31.738Z,16.40
2018-06-02T19:40:59.365Z,16.20
2018-06-02T19:43:27.004Z,16.00
2018-06-02T19:45:54.620Z,15.80
2018-06-02T19:48:22.197Z,15.80
2018-06-02T19:50:50.614Z,15.60
2018-06-02T19:53:18.215Z,15.60
2018-06-02T19:55:46.783Z,15.50
2018-06-02T19:58:14.412Z,15.40
2018-06-02T20:00:42.122Z,15.30
2018-06-02T20:03:09.703Z,15.10
2018-06-02T20:05:38.095Z,14.90
2018-06-02T20:08:05.685Z,14.90
2018-06-02T20:10:33.307Z,14.80
2018-06-02T20:13:00.931Z,14.80
2018-06-02T20:15:28.543Z,14.70
2018-06-02T20:17:56.148Z,14.60
2018-06-02T20:20:23.792Z,14.50
2018-06-02T20:22:51.384Z,14.50
2018-06-02T20:25:19.809Z,14.30
2018-06-02T20:27:47.529Z,14.30
2018-06-02T20:30:15.858Z,14.20
2018-06-02T20:32:43.481Z,14.20
2018-06-02T20:35:12.027Z,14.20
2018-06-02T20:37:39.649Z,14.20
2018-06-02T20:40:07.252Z,14.10
2018-06-02T20:42:34.830Z,14.10
2018-06-02T20:45:03.307Z,14.00
2018-06-02T20:47:31.731Z,13.90
2018-06-02T20:49:59.327Z,13.90
2018-06-02T20:52:26.966Z,13.90
2018-06-02T20:54:54.630Z,13.90
2018-06-02T20:57:22.217Z,13.80
2018-06-02T20:59:50.577Z,13.80
2018-06-02T21:02:18.142Z,13.80
2018-06-02T21:04:45.776Z,13.90
2018-06-02T21:07:13.350Z,13.90
2018-06-02T21:09:41.029Z,13.90
2018-06-02T21:12:08.652Z,13.90
2018-06-02T21:14:36.254Z,13.90
2018-06-02T21:17:03.828Z,13.80
2018-06-02T21:19:31.400Z,13.80
2018-06-02T21:21:59.762Z,13.60
2018-06-02T21:24:27.425Z,13.60
2018-06-02T21:26:55.012Z,13.60
2018-06-02T21:29:22.585Z,13.60
2018-06-02T21:31:50.193Z,13.60
2018-06-02T21:34:17.780Z,13.50
2018-06-02T21:36:46.497Z,13.60
2018-06-02T21:39:14.054Z,13.50
2018-06-02T21:41:41.694Z,13.50
2018-06-02T21:44:09.371Z,13.40
2018-06-02T21:46:36.983Z,13.40
2018-06-02T21:49:04.565Z,13.40
2018-06-02T21:51:32.151Z,13.40
2018-06-02T21:53:59.712Z,13.40
2018-06-02T21:56:27.355Z,13.40
2018-06-02T21:58:54.911Z,13.40
2018-06-02T22:01:22.570Z,13.40
2018-06-02T22:03:50.130Z,13.50
2018-06-02T22:06:17.747Z,13.60
2018-06-02T22:08:45.366Z,13.60
2018-06-02T22:11:13.003Z,13.70
2018-06-02T22:13:40.659Z,13.70
2018-06-02T22:16:08.258Z,13.60
2018-06-02T22:18:35.824Z,13.50
2018-06-02T22:21:04.174Z,13.40
2018-06-02T22:23:31.770Z,13.40
2018-06-02T22:25:59.345Z,13.40
2018-06-02T22:28:26.913Z,13.40
2018-06-02T22:30:54.570Z,13.40
2018-06-02T22:33:22.179Z,13.50
2018-06-02T22:35:49.807Z,13.50
2018-06-02T22:38:17.425Z,13.50
2018-06-02T22:40:45.791Z,13.60
2018-06-02T22:43:13.374Z,13.60
2018-06-02T22:45:41.041Z,13.60
2018-06-02T22:48:08.605Z,13.60
2018-06-02T22:50:36.230Z,13.50
2018-06-02T22:53:05.887Z,13.40
2018-06-02T22:55:33.499Z,13.40
2018-06-02T22:58:01.906Z,13.40
2018-06-02T23:00:29.517Z,13.40
2018-06-02T23:02:57.087Z,13.60
2018-06-02T23:05:24.637Z,13.90
2018-06-02T23:07:52.247Z,14.10
2018-06-02T23:10:19.935Z,14.30
2018-06-02T23:12:47.512Z,14.60
2018-06-02T23:15:15.139Z,14.80
2018-06-02T23:17:42.742Z,14.80
2018-06-02T23:20:10.339Z,14.60
2018-06-02T23:22:38.794Z,14.40
2018-06-02T23:25:07.187Z,14.10
2018-06-02T23:27:35.764Z,14.10
2018-06-02T23:30:04.066Z,14.10
2018-06-02T23:32:31.688Z,14.30
2018-06-02T23:34:59.390Z,14.30
2018-06-02T23:37:27.045Z,14.30
2018-06-02T23:39:54.614Z,14.10
2018-06-02T23:42:22.220Z,14.00
2018-06-02T23:44:49.837Z,13.90
2018-06-02T23:47:17.466Z,13.80
2018-06-02T23:49:45.116Z,13.70
2018-06-02T23:52:12.687Z,13.60
2018-06-02T23:54:40.290Z,13.50
2018-06-02T23:57:07.846Z,13.40
2018-06-02T23:59:35.468Z,13.40
